Time;durP1;ratioP1;P1;durP2;ratioP2;P2;SDS_P1;SDS_P2;PMS_P1;PMS_P2;Temp;Humidity;BMP_temperature;BMP_pressure;BME280_temperature;BME280_humidity;BME280_pressure;Samples;Min_cycle;Max_cycle;Signal;HPM_P1;HPM_P2
2024/01/01 07:43:42;;;;;;;5.97;2.17;;;8.20;94.70;;;;;;10593593;27;20557;-61
2024/01/01 07:48:46;;;;;;;8.50;2.33;;;8.30;95.50;;;;;;10573248;28;20201;-63
2024/01/01 07:53:50;;;;;;;8.47;1.93;;;8.40;95.90;;;;;;10529669;27;20352;-62
2024/01/01 07:58:55;;;;;;;7.70;1.97;;;8.50;95.60;;;;;;10449671;28;20207;-62
2024/01/01 08:03:58;;;;;;;9.73;1.90;;;8.60;95.60;;;;;;10451702;28;20758;-62
2024/01/01 08:09:02;;;;;;;5.97;1.77;;;8.70;95.10;;;;;;10454631;28;20203;-62
2024/01/01 08:14:07;;;;;;;5.60;1.70;;;8.70;95.00;;;;;;10450648;28;20278;-62
2024/01/01 08:19:11;;;;;;;8.70;2.00;;;8.70;95.00;;;;;;10442911;28;20288;-63
2024/01/01 08:24:14;;;;;;;7.43;1.83;;;8.80;95.20;;;;;;10463220;28;20234;-62
2024/01/01 08:29:19;;;;;;;8.80;2.00;;;8.70;95.10;;;;;;10551380;28;20197;-62
2024/01/01 08:34:23;;;;;;;5.90;1.63;;;8.80;95.00;;;;;;10542894;28;20751;-63
2024/01/01 08:39:26;;;;;;;5.33;1.80;;;8.80;95.60;;;;;;10541600;28;20353;-62
2024/01/01 08:44:31;;;;;;;6.77;2.10;;;8.80;95.10;;;;;;10526352;28;20283;-62
2024/01/01 08:49:35;;;;;;;6.13;1.60;;;8.90;95.30;;;;;;10525785;28;20195;-62
2024/01/01 08:54:38;;;;;;;6.33;1.70;;;8.90;94.80;;;;;;10503090;28;20218;-62
2024/01/01 08:59:43;;;;;;;5.40;1.47;;;8.90;94.80;;;;;;10504388;28;20194;-61
2024/01/01 09:04:47;;;;;;;4.20;1.50;;;8.90;94.30;;;;;;10513875;28;20222;-62
2024/01/01 09:09:50;;;;;;;3.77;1.10;;;8.90;94.50;;;;;;10505576;28;20191;-64
2024/01/01 09:14:56;;;;;;;4.63;1.37;;;8.90;94.90;;;;;;10499605;28;20219;-62
2024/01/01 09:20:00;;;;;;;23.70;9.87;;;9.00;94.80;;;;;;10497110;28;20694;-62
2024/01/01 09:25:04;;;;;;;34.33;15.77;;;9.00;94.70;;;;;;10501256;28;20222;-62
2024/01/01 09:30:10;;;;;;;10.70;3.90;;;9.00;94.70;;;;;;10499790;28;20199;-62
2024/01/01 09:35:14;;;;;;;7.37;2.70;;;9.10;94.90;;;;;;10501280;28;20222;-64
2024/01/01 09:40:18;;;;;;;5.97;1.80;;;9.10;94.60;;;;;;10509698;28;20579;-60
2024/01/01 09:45:25;;;;;;;5.63;1.30;;;9.10;94.70;;;;;;10499817;28;20242;-63
2024/01/01 09:50:29;;;;;;;4.43;1.57;;;9.10;94.20;;;;;;10498249;28;20195;-62
2024/01/01 09:55:33;;;;;;;8.83;2.50;;;9.10;95.40;;;;;;10492922;28;20279;-62
2024/01/01 10:00:37;;;;;;;5.53;1.60;;;9.10;94.50;;;;;;10487575;28;20942;-62
2024/01/01 10:05:41;;;;;;;7.30;1.57;;;9.10;94.40;;;;;;10484264;28;20631;-62
2024/01/01 10:10:45;;;;;;;7.27;1.57;;;9.10;94.50;;;;;;10493213;28;20220;-62
2024/01/01 10:15:55;;;;;;;4.57;1.00;;;9.10;95.00;;;;;;10492016;28;20223;-62
2024/01/01 10:21:10;;;;;;;5.57;1.77;;;9.10;94.70;;;;;;10497004;28;20284;-61
2024/01/01 10:26:18;;;;;;;4.83;1.50;;;9.10;94.70;;;;;;10496369;28;20244;-61
2024/01/01 10:31:23;;;;;;;5.00;1.43;;;9.10;94.60;;;;;;10496057;28;20202;-61
2024/01/01 10:36:27;;;;;;;6.13;2.03;;;9.10;94.80;;;;;;10495320;28;20646;-62
2024/01/01 10:41:30;;;;;;;9.70;1.93;;;9.10;94.50;;;;;;10495497;28;20243;-62
2024/01/01 10:46:37;;;;;;;5.07;1.60;;;9.10;94.60;;;;;;10488932;28;20560;-62
2024/01/01 10:51:51;;;;;;;4.37;1.50;;;9.10;94.40;;;;;;10492431;28;20663;-60
2024/01/01 10:57:08;;;;;;;8.13;1.57;;;9.20;94.40;;;;;;10492535;28;20230;-62
2024/01/01 11:02:13;;;;;;;7.83;1.80;;;9.20;94.50;;;;;;10487097;28;20248;-62
2024/01/01 11:07:16;;;;;;;6.40;1.97;;;9.30;94.40;;;;;;10482786;28;20239;-62
2024/01/01 11:12:34;;;;;;;6.47;1.73;;;9.30;94.20;;;;;;10493029;28;20248;-62
2024/01/01 11:17:39;;;;;;;8.60;1.87;;;9.30;94.30;;;;;;10488180;28;20215;-62
2024/01/01 11:22:43;;;;;;;5.63;1.33;;;9.40;94.10;;;;;;10488774;28;20198;-62
2024/01/01 11:27:47;;;;;;;7.63;1.70;;;9.50;94.20;;;;;;10494555;28;20230;-62
2024/01/01 11:33:02;;;;;;;8.20;2.00;;;9.50;94.00;;;;;;10498257;28;20202;-61
2024/01/01 11:38:06;;;;;;;6.32;1.90;;;9.50;94.00;;;;;;10493317;28;20203;-61
2024/01/01 11:43:10;;;;;;;4.13;1.80;;;9.50;93.80;;;;;;10493952;28;20226;-60
2024/01/01 11:48:16;;;;;;;6.77;2.00;;;9.60;94.00;;;;;;10490153;28;20249;-62
2024/01/01 11:53:19;;;;;;;5.93;1.80;;;9.60;93.80;;;;;;10492132;28;20210;-61
2024/01/01 11:58:23;;;;;;;7.20;1.93;;;9.60;94.00;;;;;;10489888;28;20260;-61
2024/01/01 12:03:29;;;;;;;8.70;1.60;;;9.60;93.50;;;;;;10491281;28;20227;-59
2024/01/01 12:08:33;;;;;;;8.90;2.13;;;9.70;93.80;;;;;;10490824;28;20221;-60
2024/01/01 12:13:36;;;;;;;8.13;1.90;;;9.60;93.60;;;;;;10493417;28;20210;-60
2024/01/01 12:18:41;;;;;;;9.00;2.20;;;9.70;93.60;;;;;;10489761;28;20233;-61
2024/01/01 12:23:45;;;;;;;10.70;3.03;;;9.70;93.90;;;;;;10487025;28;20273;-61
2024/01/01 12:29:03;;;;;;;7.93;2.53;;;9.70;93.80;;;;;;10498394;28;20854;-61
2024/01/01 12:34:13;;;;;;;5.37;1.83;;;9.70;93.70;;;;;;10496431;28;20269;-61
2024/01/01 12:39:17;;;;;;;6.37;1.87;;;9.70;93.70;;;;;;10496868;28;20590;-60
2024/01/01 12:44:21;;;;;;;5.77;1.87;;;9.80;93.80;;;;;;10497830;28;20226;-61
2024/01/01 12:49:26;;;;;;;6.17;1.93;;;9.80;93.50;;;;;;10501678;28;20198;-61
2024/01/01 12:54:30;;;;;;;7.90;2.03;;;9.80;93.80;;;;;;10502152;28;20678;-61
2024/01/01 12:59:34;;;;;;;8.80;2.17;;;9.80;93.40;;;;;;10504651;28;20202;-61
2024/01/01 13:04:38;;;;;;;8.03;1.63;;;9.80;93.30;;;;;;10499879;28;20226;-61
2024/01/01 13:09:42;;;;;;;9.80;2.47;;;9.80;92.90;;;;;;10497393;28;20260;-62
2024/01/01 13:14:46;;;;;;;9.80;3.03;;;9.80;92.60;;;;;;10501224;28;20241;-60
2024/01/01 13:19:50;;;;;;;7.30;2.13;;;9.80;92.70;;;;;;10497595;28;20244;-61
2024/01/01 13:24:54;;;;;;;8.60;2.37;;;9.80;93.00;;;;;;10498273;28;20230;-61
2024/01/01 13:29:58;;;;;;;8.77;2.60;;;9.80;92.80;;;;;;10460022;28;20293;-64
2024/01/01 13:35:04;;;;;;;11.60;2.70;;;9.80;92.80;;;;;;10449140;28;20601;-62
2024/01/01 13:40:09;;;;;;;9.33;2.80;;;9.90;92.80;;;;;;10453257;28;20265;-62
2024/01/01 13:45:13;;;;;;;10.77;2.30;;;9.90;92.90;;;;;;10450738;28;20284;-61
2024/01/01 13:50:22;;;;;;;9.90;2.23;;;9.90;92.50;;;;;;10453469;28;20341;-63
2024/01/01 13:55:26;;;;;;;14.03;3.40;;;10.00;91.70;;;;;;10450595;28;20280;-62
2024/01/01 14:00:30;;;;;;;12.53;3.23;;;10.00;91.70;;;;;;10449053;28;20741;-62
2024/01/01 14:05:35;;;;;;;10.20;3.43;;;10.10;91.70;;;;;;10451045;28;20219;-62
2024/01/01 14:10:38;;;;;;;13.27;3.13;;;10.00;91.50;;;;;;10442292;28;20257;-63
2024/01/01 14:15:42;;;;;;;10.17;2.80;;;10.00;91.70;;;;;;10453972;28;20219;-63
2024/01/01 14:20:47;;;;;;;15.67;3.13;;;10.00;91.50;;;;;;10447363;28;20651;-63
2024/01/01 14:25:51;;;;;;;14.40;3.23;;;10.00;91.70;;;;;;10445954;28;20237;-63
2024/01/01 14:30:54;;;;;;;13.20;3.53;;;10.00;91.60;;;;;;10441552;28;20743;-65
2024/01/01 14:35:59;;;;;;;10.20;2.90;;;10.00;91.50;;;;;;10453695;28;20275;-63
2024/01/01 14:41:03;;;;;;;12.18;2.55;;;9.90;91.70;;;;;;10450219;28;20220;-62
2024/01/01 14:46:15;;;;;;;15.50;3.23;;;9.90;91.60;;;;;;10451641;28;20758;-63
2024/01/01 14:51:20;;;;;;;14.47;3.13;;;9.80;91.50;;;;;;10451987;28;20659;-63
2024/01/01 14:56:26;;;;;;;11.68;2.80;;;9.80;91.60;;;;;;10450533;28;20215;-62
2024/01/01 15:01:30;;;;;;;16.03;3.27;;;9.80;91.90;;;;;;10448438;28;20629;-62
2024/01/01 15:06:35;;;;;;;8.48;2.90;;;9.70;91.80;;;;;;10454701;28;20643;-62
2024/01/01 15:11:39;;;;;;;15.20;3.40;;;9.70;91.50;;;;;;10451537;28;20245;-64
2024/01/01 15:16:43;;;;;;;13.63;3.67;;;9.70;91.60;;;;;;10454104;28;20243;-63
2024/01/01 15:21:48;;;;;;;14.50;3.30;;;9.70;91.50;;;;;;10447504;28;20289;-63
2024/01/01 15:26:53;;;;;;;13.17;3.30;;;9.70;91.50;;;;;;10449412;28;20220;-64
2024/01/01 15:31:57;;;;;;;12.57;2.90;;;9.60;91.20;;;;;;10448126;28;20203;-64
2024/01/01 15:37:03;;;;;;;13.90;3.43;;;9.60;91.30;;;;;;10452185;28;20723;-62
2024/01/01 15:42:07;;;;;;;15.57;3.77;;;9.50;91.90;;;;;;10445332;28;20305;-64
2024/01/01 15:47:11;;;;;;;13.20;2.97;;;9.50;91.80;;;;;;10445852;28;20220;-64
2024/01/01 15:52:16;;;;;;;16.90;4.10;;;9.50;92.10;;;;;;10446592;28;20659;-63
2024/01/01 15:57:21;;;;;;;14.13;2.53;;;9.50;92.10;;;;;;10447934;28;20219;-63
2024/01/01 16:02:24;;;;;;;17.27;3.45;;;9.40;91.40;;;;;;10444373;28;20273;-62
2024/01/01 16:07:29;;;;;;;15.00;3.63;;;9.50;91.50;;;;;;10450634;28;20219;-65
2024/01/01 16:12:33;;;;;;;15.57;3.73;;;9.40;91.50;;;;;;10456068;28;20627;-62
2024/01/01 16:17:36;;;;;;;14.90;3.43;;;9.40;91.70;;;;;;10457977;28;20273;-63
2024/01/01 16:22:41;;;;;;;17.27;3.50;;;9.40;91.90;;;;;;10458460;28;20272;-64
2024/01/01 16:27:45;;;;;;;16.13;3.47;;;9.40;91.90;;;;;;10461070;28;20262;-61
2024/01/01 16:32:49;;;;;;;16.67;3.70;;;9.40;92.00;;;;;;10459026;28;20219;-63
2024/01/01 16:37:54;;;;;;;12.97;3.53;;;9.40;92.20;;;;;;10457625;28;20257;-63
2024/01/01 16:42:57;;;;;;;10.50;2.63;;;9.50;92.10;;;;;;10459305;28;20223;-62
2024/01/01 16:48:01;;;;;;;12.50;3.13;;;9.40;91.90;;;;;;10458566;28;20215;-64
2024/01/01 16:53:06;;;;;;;15.17;3.63;;;9.40;92.00;;;;;;10450388;28;20199;-63
2024/01/01 16:58:10;;;;;;;12.83;3.63;;;9.40;92.40;;;;;;10452193;28;20269;-63
2024/01/01 17:03:14;;;;;;;13.70;3.33;;;9.40;92.70;;;;;;10449886;28;20231;-62
2024/01/01 17:08:20;;;;;;;10.90;3.23;;;9.40;92.50;;;;;;10450993;28;20229;-63
2024/01/01 17:13:24;;;;;;;12.73;3.47;;;9.30;92.50;;;;;;10450926;28;20242;-63
2024/01/01 17:18:28;;;;;;;16.80;3.90;;;9.30;92.60;;;;;;10458767;28;20222;-62
2024/01/01 17:23:33;;;;;;;14.37;3.67;;;9.30;92.80;;;;;;10448511;28;20588;-63
2024/01/01 17:28:37;;;;;;;13.47;3.60;;;9.30;92.50;;;;;;10457101;28;20200;-63
2024/01/01 17:33:41;;;;;;;19.97;3.90;;;9.20;92.60;;;;;;10459324;28;20211;-62
2024/01/01 17:38:48;;;;;;;17.37;3.93;;;9.20;92.60;;;;;;10447518;28;20231;-60
2024/01/01 17:43:52;;;;;;;11.93;3.33;;;9.20;92.90;;;;;;10450401;28;20227;-62
2024/01/01 17:48:55;;;;;;;14.27;3.73;;;9.10;92.90;;;;;;10451628;28;20203;-62
2024/01/01 17:54:00;;;;;;;15.30;3.80;;;9.10;93.10;;;;;;10460297;28;20223;-61
2024/01/01 17:59:04;;;;;;;13.43;4.50;;;9.00;92.80;;;;;;10462064;28;20211;-63
2024/01/01 18:04:08;;;;;;;15.10;4.57;;;9.00;92.70;;;;;;10453976;28;20232;-61
2024/01/01 18:09:13;;;;;;;21.77;4.10;;;9.00;93.00;;;;;;10454247;28;20199;-60
2024/01/01 18:14:19;;;;;;;15.27;4.40;;;9.00;93.10;;;;;;10451237;28;20212;-64
2024/01/01 18:19:22;;;;;;;11.27;3.10;;;9.00;93.40;;;;;;10456743;28;20253;-62
2024/01/01 18:24:27;;;;;;;16.33;4.60;;;8.90;93.40;;;;;;10449467;28;20451;-63
2024/01/01 18:29:31;;;;;;;12.17;3.73;;;9.10;93.50;;;;;;10451606;28;20269;-63
2024/01/01 18:34:35;;;;;;;14.80;3.47;;;9.10;93.40;;;;;;10455434;28;20212;-62
2024/01/01 18:39:40;;;;;;;12.70;3.30;;;9.10;93.50;;;;;;10456847;28;20211;-61
2024/01/01 18:44:44;;;;;;;15.50;4.00;;;9.10;93.70;;;;;;10450978;28;20281;-62
2024/01/01 18:49:48;;;;;;;13.20;3.77;;;9.00;93.80;;;;;;10451447;28;20789;-62
2024/01/01 18:54:53;;;;;;;15.70;3.70;;;9.00;93.70;;;;;;10453506;28;20216;-63
2024/01/01 18:59:57;;;;;;;18.27;3.60;;;9.00;93.50;;;;;;10447371;28;20208;-63
2024/01/01 19:05:01;;;;;;;13.40;3.80;;;9.00;93.60;;;;;;10437976;28;20780;-63
2024/01/01 19:10:07;;;;;;;13.40;3.77;;;9.00;93.40;;;;;;10449739;28;20203;-63
2024/01/01 19:15:11;;;;;;;10.67;3.17;;;9.00;93.90;;;;;;10444595;28;20216;-62
2024/01/01 19:20:14;;;;;;;15.17;4.10;;;9.00;94.00;;;;;;10441730;28;20661;-63
2024/01/01 19:25:20;;;;;;;14.53;4.20;;;9.00;94.00;;;;;;10444729;28;20216;-62
2024/01/01 19:30:23;;;;;;;15.70;4.07;;;9.00;93.90;;;;;;10445649;28;20294;-62
2024/01/01 19:35:27;;;;;;;14.60;3.53;;;9.00;93.60;;;;;;10446170;28;20220;-63
2024/01/01 19:40:32;;;;;;;14.77;3.50;;;9.00;93.80;;;;;;10443567;28;20208;-63
2024/01/01 19:45:35;;;;;;;11.93;3.60;;;9.00;93.80;;;;;;10448990;28;20288;-63
2024/01/01 19:50:39;;;;;;;14.20;3.77;;;9.00;93.80;;;;;;10440170;28;20249;-60
2024/01/01 19:55:45;;;;;;;11.43;3.17;;;9.00;94.50;;;;;;10446244;28;20559;-61
2024/01/01 20:00:49;;;;;;;11.30;3.00;;;9.00;94.30;;;;;;10439670;28;20203;-62
2024/01/01 20:05:52;;;;;;;15.70;3.30;;;9.10;94.60;;;;;;10445437;28;20219;-62
2024/01/01 20:10:57;;;;;;;13.30;2.87;;;9.00;93.90;;;;;;10445049;28;20265;-63
2024/01/01 20:16:01;;;;;;;12.17;3.10;;;9.10;94.40;;;;;;10446466;28;20223;-63
2024/01/01 20:21:05;;;;;;;11.70;2.53;;;9.10;94.20;;;;;;10445796;28;20204;-62
2024/01/01 20:26:19;;;;;;;14.00;3.53;;;9.10;93.50;;;;;;10442292;28;20228;-62
2024/01/01 20:31:23;;;;;;;12.93;3.30;;;9.10;93.70;;;;;;10443102;28;20560;-61
2024/01/01 20:36:27;;;;;;;8.13;2.67;;;9.00;93.50;;;;;;10450197;28;20216;-61
2024/01/01 20:41:32;;;;;;;12.97;2.97;;;9.10;94.10;;;;;;10445194;28;20203;-63
2024/01/01 20:46:37;;;;;;;13.63;3.10;;;9.10;93.60;;;;;;10447417;28;20223;-61
2024/01/01 20:51:41;;;;;;;13.13;2.97;;;9.10;93.70;;;;;;10451527;28;20230;-62
2024/01/01 20:56:46;;;;;;;11.73;3.20;;;9.20;93.70;;;;;;10451918;28;20231;-62
2024/01/01 21:01:49;;;;;;;12.60;3.33;;;9.20;93.80;;;;;;10449109;28;20253;-62
2024/01/01 21:06:53;;;;;;;11.27;2.97;;;9.20;94.00;;;;;;10454769;28;20215;-63
2024/01/01 21:11:58;;;;;;;10.00;3.07;;;9.20;93.90;;;;;;10453005;28;20250;-62
2024/01/01 21:17:01;;;;;;;10.83;2.80;;;9.20;93.70;;;;;;10453355;28;20227;-61
2024/01/01 21:22:05;;;;;;;12.10;2.87;;;9.20;94.10;;;;;;10450962;28;20200;-63
2024/01/01 21:27:10;;;;;;;14.87;3.23;;;9.20;94.00;;;;;;10447426;28;20216;-63
2024/01/01 21:32:14;;;;;;;11.73;2.93;;;9.20;94.40;;;;;;10450223;28;20594;-61
2024/01/01 21:37:18;;;;;;;14.52;3.33;;;9.20;94.60;;;;;;10448915;28;20216;-61
2024/01/01 21:42:22;;;;;;;14.60;3.70;;;9.20;94.60;;;;;;10447582;28;20216;-62
2024/01/01 21:47:26;;;;;;;15.93;2.90;;;9.20;95.10;;;;;;10447169;28;20207;-63
2024/01/01 21:52:30;;;;;;;10.47;2.37;;;9.20;95.20;;;;;;10453293;28;20553;-63
2024/01/01 21:57:35;;;;;;;11.40;2.70;;;9.20;95.20;;;;;;10446233;28;20584;-63
2024/01/01 22:02:38;;;;;;;11.83;2.70;;;9.20;94.80;;;;;;10448110;28;20208;-62
2024/01/01 22:07:43;;;;;;;9.00;2.65;;;9.20;95.80;;;;;;10451559;28;20238;-63
2024/01/01 22:12:48;;;;;;;10.33;2.37;;;9.20;95.50;;;;;;10446278;28;20290;-63
2024/01/01 22:17:52;;;;;;;16.00;3.47;;;9.20;95.40;;;;;;10450536;28;20274;-62
2024/01/01 22:22:59;;;;;;;11.77;2.90;;;9.20;95.70;;;;;;10444598;28;20208;-60
2024/01/01 22:28:07;;;;;;;13.63;2.83;;;9.20;95.50;;;;;;10447023;28;20277;-61
2024/01/01 22:33:14;;;;;;;13.60;3.50;;;9.20;95.80;;;;;;10443125;28;20631;-63
2024/01/01 22:38:23;;;;;;;12.67;3.20;;;9.20;95.80;;;;;;10450790;28;20195;-63
2024/01/01 22:43:28;;;;;;;12.60;3.90;;;9.20;96.20;;;;;;10445860;28;20231;-61
2024/01/01 22:48:34;;;;;;;15.37;3.70;;;9.20;96.90;;;;;;10444305;28;20250;-62
2024/01/01 22:53:37;;;;;;;12.23;3.13;;;9.10;96.10;;;;;;10443293;28;20560;-62
2024/01/01 22:58:42;;;;;;;9.57;3.20;;;9.10;96.30;;;;;;10447417;28;20606;-62
2024/01/01 23:03:49;;;;;;;11.00;2.67;;;9.10;96.50;;;;;;10438007;28;20215;-62
2024/01/01 23:08:55;;;;;;;13.40;2.70;;;9.10;96.60;;;;;;10446418;28;20279;-63
2024/01/01 23:14:03;;;;;;;9.77;2.67;;;9.10;97.00;;;;;;10446061;28;20591;-62
2024/01/01 23:19:09;;;;;;;11.10;3.03;;;9.10;96.90;;;;;;10440592;28;20200;-64
2024/01/01 23:24:17;;;;;;;15.13;2.87;;;9.10;96.70;;;;;;10441558;28;20224;-63
2024/01/01 23:29:24;;;;;;;13.37;2.60;;;9.10;97.00;;;;;;10441200;28;20655;-64
2024/01/01 23:34:31;;;;;;;8.13;2.67;;;9.10;96.70;;;;;;10440717;28;20274;-63
2024/01/01 23:39:44;;;;;;;8.37;2.17;;;9.10;97.10;;;;;;10441824;28;20203;-64
2024/01/01 23:44:51;;;;;;;10.43;2.40;;;9.10;96.90;;;;;;10445397;28;20369;-62
2024/01/01 23:49:58;;;;;;;8.43;2.23;;;9.20;97.40;;;;;;10446814;28;20220;-61
2024/01/01 23:55:02;;;;;;;6.87;1.90;;;9.20;97.20;;;;;;10436884;28;20231;-63
